createdAt,value
2022-10-11T00:04:57.754Z,100477.60
2022-10-11T00:10:00.876Z,100462.40
2022-10-11T00:15:07.008Z,100470.60
2022-10-11T00:20:11.576Z,100468.40
2022-10-11T00:25:14.615Z,100463.20
2022-10-11T00:30:17.795Z,100472.80
2022-10-11T00:35:20.817Z,100466.40
2022-10-11T00:40:24.005Z,100462.80
2022-10-11T00:45:27.019Z,100467.80
2022-10-11T00:50:36.549Z,100457.40
2022-10-11T00:55:54.519Z,100468.20
2022-10-11T01:00:58.560Z,100467.20
2022-10-11T01:06:03.672Z,100459.20
2022-10-11T01:11:12.225Z,100450.40
2022-10-11T01:16:42.869Z,100451.80
2022-10-11T01:21:49.889Z,100458.80
2022-10-11T01:27:14.370Z,100460.80
2022-10-11T01:32:23.208Z,100457.60
2022-10-11T01:37:38.017Z,100452.20
2022-10-11T01:42:43.134Z,100452.40
2022-10-11T01:47:46.679Z,100444.40
2022-10-11T01:52:51.433Z,100442.40
2022-10-11T01:58:38.055Z,100430.60
2022-10-11T02:03:59.486Z,100433.20
2022-10-11T02:09:24.506Z,100437.60
2022-10-11T02:14:36.828Z,100433.40
2022-10-11T02:19:47.315Z,100433.40
2022-10-11T02:24:55.606Z,100445.20
2022-10-11T02:30:02.930Z,100439.80
2022-10-11T02:35:07.360Z,100439.60
2022-10-11T02:40:20.989Z,100453.40
2022-10-11T02:45:36.165Z,100456.40
2022-10-11T02:50:41.170Z,100448.00
2022-10-11T02:55:44.209Z,100447.00
2022-10-11T03:00:48.119Z,100456.60
2022-10-11T03:05:51.124Z,100458.00
2022-10-11T03:10:54.518Z,100463.60
2022-10-11T03:16:03.172Z,100474.80
2022-10-11T03:21:06.875Z,100481.40
2022-10-11T03:26:09.879Z,100481.80
2022-10-11T03:31:12.878Z,100478.80
2022-10-11T03:36:17.075Z,100479.60
2022-10-11T03:41:20.321Z,100474.60
2022-10-11T03:46:23.447Z,100489.80
2022-10-11T03:51:26.533Z,100486.60
2022-10-11T03:56:29.639Z,100488.80
2022-10-11T04:01:37.882Z,100495.20
2022-10-11T04:06:41.199Z,100494.40
2022-10-11T04:11:44.248Z,100501.40
2022-10-11T04:16:47.301Z,100512.20
2022-10-11T04:21:50.392Z,100517.00
2022-10-11T04:26:53.499Z,100514.40
2022-10-11T04:31:56.504Z,100519.80
2022-10-11T04:36:59.547Z,100528.20
2022-10-11T04:42:02.611Z,100531.60
2022-10-11T04:47:05.754Z,100529.80
2022-10-11T04:52:08.926Z,100536.20
2022-10-11T04:57:11.961Z,100544.60
2022-10-11T05:02:15.014Z,100549.20
2022-10-11T05:07:18.162Z,100560.40
2022-10-11T05:12:21.146Z,100564.80
2022-10-11T05:17:24.257Z,100576.40
2022-10-11T05:22:27.462Z,100579.80
2022-10-11T05:27:30.675Z,100583.60
2022-10-11T05:32:34.288Z,100595.40
2022-10-11T05:37:37.395Z,100600.40
2022-10-11T05:42:41.012Z,100605.00
2022-10-11T05:47:44.221Z,100611.00
2022-10-11T05:52:47.268Z,100617.40
2022-10-11T05:57:57.485Z,100621.40
2022-10-11T06:03:00.607Z,100633.40
2022-10-11T06:08:06.278Z,100637.80
2022-10-11T06:13:09.899Z,100647.20
2022-10-11T06:18:13.001Z,100652.80
2022-10-11T06:23:15.998Z,100661.80
2022-10-11T06:28:19.076Z,100665.80
2022-10-11T06:33:22.934Z,100678.40
2022-10-11T06:38:27.064Z,100688.00
2022-10-11T06:43:30.166Z,100696.40
2022-10-11T06:48:33.504Z,100704.40
2022-10-11T06:53:37.003Z,100713.00
2022-10-11T06:58:40.762Z,100714.20
2022-10-11T07:03:44.132Z,100722.00
2022-10-11T07:08:49.084Z,100729.80
2022-10-11T07:14:02.093Z,100736.60
2022-10-11T07:19:07.240Z,100743.80
2022-10-11T07:24:10.371Z,100755.20
2022-10-11T07:29:13.477Z,100760.60
2022-10-11T07:34:16.688Z,100764.20
2022-10-11T07:39:19.794Z,100770.20
2022-10-11T07:44:22.819Z,100780.20
2022-10-11T07:49:26.006Z,100787.00
2022-10-11T07:54:29.118Z,100797.00
2022-10-11T07:59:32.224Z,100803.20
2022-10-11T08:04:35.326Z,100813.20
2022-10-11T08:09:38.431Z,100814.40
2022-10-11T08:14:41.947Z,100822.00
2022-10-11T08:19:44.949Z,100831.40
2022-10-11T08:24:49.999Z,100836.60
2022-10-11T08:29:53.002Z,100849.20
2022-10-11T08:34:56.107Z,100847.80
2022-10-11T08:39:59.539Z,100856.60
2022-10-11T08:45:18.908Z,100857.80
2022-10-11T08:50:24.371Z,100859.00
2022-10-11T08:55:52.574Z,100865.40
2022-10-11T09:00:58.492Z,100874.60
2022-10-11T09:06:32.081Z,100879.80
2022-10-11T09:12:00.973Z,100890.80
2022-10-11T09:17:36.076Z,100900.40
2022-10-11T09:23:04.351Z,100905.60
2022-10-11T09:28:35.724Z,100910.60
2022-10-11T09:33:50.110Z,100915.60
2022-10-11T09:38:56.854Z,100922.60
2022-10-11T09:43:59.966Z,100922.20
2022-10-11T09:49:10.038Z,100932.00
2022-10-11T09:54:13.239Z,100936.40
2022-10-11T09:59:33.470Z,100939.60
2022-10-11T10:05:02.015Z,100945.20
2022-10-11T10:10:42.631Z,100947.40
2022-10-11T10:15:49.257Z,100954.00
2022-10-11T10:20:57.155Z,100960.40
2022-10-11T10:26:18.883Z,100956.80
2022-10-11T10:31:26.778Z,100967.20
2022-10-11T10:36:45.380Z,100970.20
2022-10-11T10:41:48.574Z,100972.60
2022-10-11T10:47:11.043Z,100978.60
2022-10-11T10:52:20.008Z,100986.00
2022-10-11T10:57:36.171Z,100989.20
2022-10-11T11:02:58.948Z,100995.40
2022-10-11T11:08:30.124Z,100991.00
2022-10-11T11:13:33.029Z,100987.40
2022-10-11T11:19:03.600Z,100987.20
2022-10-11T11:24:52.968Z,100987.80
2022-10-11T11:30:11.910Z,100998.60
2022-10-11T11:35:41.469Z,101004.20
2022-10-11T11:40:52.979Z,101011.60
2022-10-11T11:46:06.708Z,101006.60
2022-10-11T11:51:30.672Z,101000.60
2022-10-11T11:57:12.802Z,101006.60
2022-10-11T12:03:02.138Z,101010.00
2022-10-11T12:08:27.630Z,101008.00
2022-10-11T12:13:37.838Z,101013.80
2022-10-11T12:19:14.636Z,101017.20
2022-10-11T12:24:20.624Z,101009.60
2022-10-11T12:29:49.667Z,101012.00
2022-10-11T12:35:32.225Z,101013.40
2022-10-11T12:40:47.319Z,101016.00
2022-10-11T12:45:51.309Z,101011.40
2022-10-11T12:51:21.681Z,101015.60
2022-10-11T12:57:12.066Z,101025.60
2022-10-11T13:02:40.529Z,101021.80
2022-10-11T13:07:43.975Z,101025.40
2022-10-11T13:12:49.201Z,101036.40
2022-10-11T13:18:00.423Z,101043.40
2022-10-11T13:23:03.509Z,101047.80
2022-10-11T13:28:10.113Z,101064.60
2022-10-11T13:33:32.341Z,101068.60
2022-10-11T13:38:37.258Z,101058.60
2022-10-11T13:43:41.139Z,101054.40
2022-10-11T13:48:44.131Z,101051.80
2022-10-11T13:54:13.809Z,101051.60
2022-10-11T13:59:25.735Z,101057.20
2022-10-11T14:04:40.857Z,101058.80
2022-10-11T14:09:47.238Z,101062.60
2022-10-11T14:14:50.343Z,101061.40
2022-10-11T14:20:24.175Z,101060.40
2022-10-11T14:25:27.786Z,101064.80
2022-10-11T14:30:31.890Z,101069.80
2022-10-11T14:35:35.282Z,101073.40
2022-10-11T14:40:38.329Z,101073.20
2022-10-11T14:45:41.368Z,101084.00
2022-10-11T14:50:55.395Z,101089.00
2022-10-11T14:55:58.501Z,101090.00
2022-10-11T15:01:01.611Z,101095.40
2022-10-11T15:06:06.928Z,101102.40
2022-10-11T15:11:13.616Z,101113.20
2022-10-11T15:16:20.800Z,101111.80
2022-10-11T15:21:27.572Z,101119.00
2022-10-11T15:26:31.072Z,101124.60
2022-10-11T15:31:34.069Z,101119.00
2022-10-11T15:36:37.178Z,101127.80
2022-10-11T15:41:40.182Z,101131.80
2022-10-11T15:46:44.018Z,101135.60
2022-10-11T15:51:47.011Z,101149.20
2022-10-11T15:56:50.012Z,101150.60
2022-10-11T16:01:53.174Z,101154.00
2022-10-11T16:06:56.325Z,101161.60
2022-10-11T16:11:59.430Z,101162.40
2022-10-11T16:17:04.379Z,101170.20
2022-10-11T16:22:07.563Z,101174.20
2022-10-11T16:27:13.256Z,101175.20
2022-10-11T16:32:19.137Z,101180.80
2022-10-11T16:37:22.235Z,101180.20
2022-10-11T16:42:26.439Z,101187.00
2022-10-11T16:47:29.510Z,101180.60
2022-10-11T16:52:32.884Z,101179.80
2022-10-11T16:57:38.034Z,101177.60
2022-10-11T17:02:41.062Z,101177.00
2022-10-11T17:07:44.147Z,101181.20
2022-10-11T17:12:50.303Z,101191.00
2022-10-11T17:17:56.089Z,101184.60
2022-10-11T17:22:59.507Z,101192.80
2022-10-11T17:28:02.614Z,101198.40
2022-10-11T17:33:06.027Z,101206.80
2022-10-11T17:38:09.126Z,101209.60
2022-10-11T17:43:12.643Z,101205.60
2022-10-11T17:48:15.751Z,101203.00
2022-10-11T17:53:18.866Z,101201.20
2022-10-11T17:58:22.090Z,101205.00
2022-10-11T18:03:25.273Z,101205.40
2022-10-11T18:08:28.311Z,101204.60
2022-10-11T18:13:31.596Z,101204.40
2022-10-11T18:18:35.722Z,101212.20
2022-10-11T18:23:39.033Z,101221.20
2022-10-11T18:28:43.618Z,101216.80
2022-10-11T18:33:47.691Z,101223.80
2022-10-11T18:38:56.034Z,101222.20
2022-10-11T18:44:03.924Z,101220.20
2022-10-11T18:49:07.259Z,101218.80
2022-10-11T18:54:15.406Z,101221.60
2022-10-11T18:59:21.766Z,101231.60
2022-10-11T19:04:25.083Z,101233.40
2022-10-11T19:09:29.051Z,101234.80
2022-10-11T19:14:32.029Z,101239.60
2022-10-11T19:19:35.418Z,101235.40
2022-10-11T19:24:38.646Z,101236.00
2022-10-11T19:29:41.737Z,101230.40
2022-10-11T19:34:44.748Z,101234.80
2022-10-11T19:39:47.843Z,101240.40
2022-10-11T19:44:50.851Z,101241.00
2022-10-11T19:49:53.851Z,101240.60
2022-10-11T19:54:56.872Z,101242.60
2022-10-11T19:59:59.979Z,101243.20
2022-10-11T20:05:03.208Z,101246.80
2022-10-11T20:10:06.377Z,101247.00
2022-10-11T20:15:10.297Z,101252.00
2022-10-11T20:20:13.611Z,101255.60
2022-10-11T20:25:16.922Z,101260.40
2022-10-11T20:30:19.929Z,101258.60
2022-10-11T20:35:22.951Z,101255.60
2022-10-11T20:40:26.035Z,101255.00
2022-10-11T20:45:29.053Z,101259.60
2022-10-11T20:50:32.042Z,101253.40
2022-10-11T20:55:35.045Z,101251.00
2022-10-11T21:00:42.763Z,101258.20
2022-10-11T21:05:46.076Z,101263.00
2022-10-11T21:10:56.346Z,101259.40
2022-10-11T21:16:14.696Z,101254.40
2022-10-11T21:21:18.242Z,101256.40
2022-10-11T21:26:22.358Z,101257.60
2022-10-11T21:31:28.428Z,101257.40
2022-10-11T21:36:34.609Z,101257.20
2022-10-11T21:41:38.124Z,101259.80
2022-10-11T21:47:05.021Z,101269.20
2022-10-11T21:52:05.265Z,101269.40
2022-10-11T21:57:08.341Z,101269.60
2022-10-11T22:02:11.477Z,101272.60
2022-10-11T22:07:14.649Z,101273.80
2022-10-11T22:12:17.759Z,101271.80
2022-10-11T22:17:20.861Z,101268.40
2022-10-11T22:22:23.964Z,101274.80
2022-10-11T22:27:26.997Z,101269.80
2022-10-11T22:32:30.073Z,101268.60
2022-10-11T22:37:34.564Z,101269.60
2022-10-11T22:42:37.723Z,101271.60
2022-10-11T22:47:40.827Z,101267.40
2022-10-11T22:52:43.866Z,101270.40
2022-10-11T22:57:47.040Z,101269.00
2022-10-11T23:02:50.060Z,101275.00
2022-10-11T23:07:53.415Z,101277.60
2022-10-11T23:12:56.977Z,101276.00
2022-10-11T23:18:00.098Z,101271.00
2022-10-11T23:23:03.183Z,101276.60
2022-10-11T23:28:06.522Z,101278.80
2022-10-11T23:33:09.499Z,101284.80
2022-10-11T23:38:12.415Z,101279.40
2022-10-11T23:43:15.608Z,101287.00
2022-10-11T23:48:18.618Z,101294.40
2022-10-11T23:53:21.627Z,101290.60
2022-10-11T23:58:24.621Z,101287.60
